Time;durP1;ratioP1;P1;durP2;ratioP2;P2;SDS_P1;SDS_P2;PMS_P1;PMS_P2;Temp;Humidity;BMP_temperature;BMP_pressure;BME280_temperature;BME280_humidity;BME280_pressure;Samples;Min_cycle;Max_cycle;Signal;HPM_P1;HPM_P2
2022/06/07 00:00:25;;;;;;;6.53;4.87;;;17.90;99.90;;;;;;4971633;28;20470;-76
2022/06/07 00:02:50;;;;;;;4.77;4.27;;;18.00;99.90;;;;;;4969547;28;20295;-75
2022/06/07 00:05:17;;;;;;;6.83;5.00;;;18.00;99.90;;;;;;4966250;28;20211;-74
2022/06/07 00:07:43;;;;;;;4.73;4.20;;;18.00;99.90;;;;;;4969153;28;20215;-74
2022/06/07 00:10:09;;;;;;;6.70;4.70;;;18.00;99.90;;;;;;4963860;28;20474;-75
2022/06/07 00:12:35;;;;;;;5.67;4.23;;;18.00;99.90;;;;;;4970265;28;20231;-76
2022/06/07 00:15:00;;;;;;;4.90;4.40;;;17.90;99.90;;;;;;4967289;28;20240;-76
2022/06/07 00:17:26;;;;;;;7.30;4.33;;;17.80;99.90;;;;;;4965957;28;20545;-74
2022/06/07 00:19:52;;;;;;;7.80;4.70;;;17.70;99.90;;;;;;4970431;28;20179;-76
2022/06/07 00:22:17;;;;;;;4.93;4.30;;;17.70;99.90;;;;;;4967681;28;20242;-75
2022/06/07 00:24:44;;;;;;;6.10;4.57;;;17.70;99.90;;;;;;4970814;28;20186;-75
2022/06/07 00:27:09;;;;;;;6.40;5.03;;;17.50;99.90;;;;;;4964104;28;20254;-76
2022/06/07 00:29:36;;;;;;;7.33;5.00;;;17.50;99.90;;;;;;4970579;28;20445;-76
2022/06/07 00:32:02;;;;;;;7.47;4.83;;;17.50;99.90;;;;;;4969457;28;20270;-75
2022/06/07 00:34:28;;;;;;;6.10;4.70;;;17.30;99.90;;;;;;4968694;28;20814;-75
2022/06/07 00:36:54;;;;;;;6.33;4.93;;;17.30;99.90;;;;;;4970537;28;20806;-75
2022/06/07 00:39:19;;;;;;;6.83;4.73;;;17.20;99.90;;;;;;4969764;28;20431;-76
2022/06/07 00:41:45;;;;;;;5.30;4.80;;;17.20;99.90;;;;;;4968560;28;20183;-75
2022/06/07 00:44:26;;;;;;;5.60;4.67;;;17.30;99.90;;;;;;4970162;28;20188;-76
2022/06/07 00:47:02;;;;;;;5.57;4.90;;;17.40;99.90;;;;;;4960734;28;20272;-75
2022/06/07 00:49:33;;;;;;;6.17;4.87;;;17.40;99.90;;;;;;4969449;28;20913;-76
2022/06/07 00:51:59;;;;;;;6.00;5.20;;;17.40;99.90;;;;;;4969632;28;20413;-76
2022/06/07 00:54:28;;;;;;;5.47;4.90;;;17.40;99.90;;;;;;4969513;28;20404;-75
2022/06/07 00:56:55;;;;;;;6.93;5.37;;;17.40;99.90;;;;;;4970301;28;20267;-75
2022/06/07 00:59:22;;;;;;;5.83;5.27;;;17.30;99.90;;;;;;4969921;28;20814;-75
2022/06/07 01:01:47;;;;;;;6.67;5.10;;;17.20;99.90;;;;;;4970049;28;20501;-76
2022/06/07 01:04:13;;;;;;;7.43;5.07;;;17.00;99.90;;;;;;4969042;28;20530;-75
2022/06/07 01:12:07;;;;;;;6.90;4.93;;;16.80;99.90;;;;;;4969676;28;20922;-76
2022/06/07 01:14:32;;;;;;;5.40;4.90;;;16.80;99.90;;;;;;4969933;28;20419;-75
2022/06/07 01:16:58;;;;;;;6.77;5.40;;;16.80;99.90;;;;;;4961979;28;20196;-74
2022/06/07 01:19:24;;;;;;;7.67;4.93;;;16.80;99.90;;;;;;4968632;28;20250;-75
2022/06/07 01:21:50;;;;;;;6.33;4.83;;;16.90;99.90;;;;;;4969499;28;20419;-76
2022/06/07 01:24:16;;;;;;;4.83;4.40;;;16.90;99.90;;;;;;4967900;28;20185;-75
2022/06/07 01:26:42;;;;;;;5.10;4.60;;;16.90;99.90;;;;;;4969879;28;20203;-75
2022/06/07 01:29:08;;;;;;;5.23;3.80;;;16.90;99.90;;;;;;4969717;28;20498;-76
2022/06/07 01:31:34;;;;;;;4.30;3.90;;;16.90;99.90;;;;;;4968982;28;20407;-75
2022/06/07 01:34:00;;;;;;;4.13;3.73;;;16.90;99.90;;;;;;4968881;28;20498;-75
2022/06/07 01:36:26;;;;;;;6.10;3.70;;;16.90;99.90;;;;;;4970155;28;20286;-75
2022/06/07 01:41:55;;;;;;;5.47;3.80;;;16.90;99.90;;;;;;4969059;28;20461;-74
2022/06/07 01:44:39;;;;;;;4.83;3.93;;;16.80;99.90;;;;;;4969544;28;20415;-75
2022/06/07 01:47:07;;;;;;;3.70;3.30;;;16.90;99.90;;;;;;4961885;28;20549;-75
2022/06/07 01:49:33;;;;;;;7.83;3.90;;;16.80;99.90;;;;;;4967237;28;20949;-74
2022/06/07 01:51:59;;;;;;;8.23;3.93;;;16.80;99.90;;;;;;4969127;28;20966;-76
2022/06/07 01:54:25;;;;;;;3.70;3.40;;;16.70;99.90;;;;;;4969116;28;20489;-74
2022/06/07 01:56:50;;;;;;;5.37;3.97;;;16.70;99.90;;;;;;4969324;28;20203;-75
2022/06/07 01:59:17;;;;;;;6.80;3.60;;;16.70;99.90;;;;;;4969392;28;20234;-76
2022/06/07 02:01:43;;;;;;;3.90;3.40;;;16.60;99.90;;;;;;4972187;28;20288;-75
2022/06/07 02:04:10;;;;;;;3.60;3.10;;;16.60;99.90;;;;;;4970870;28;20816;-74
2022/06/07 02:06:36;;;;;;;7.20;3.33;;;16.60;99.90;;;;;;4971241;28;20513;-75
2022/06/07 02:09:02;;;;;;;3.90;3.40;;;16.60;99.90;;;;;;4972676;28;20411;-74
2022/06/07 02:11:28;;;;;;;3.30;3.00;;;16.60;99.90;;;;;;4972744;28;20431;-75
2022/06/07 02:13:54;;;;;;;5.80;3.80;;;16.50;99.90;;;;;;4973151;28;20422;-75
2022/06/07 02:16:21;;;;;;;4.30;3.43;;;16.50;99.90;;;;;;4960953;28;20263;-75
2022/06/07 02:18:47;;;;;;;7.67;3.30;;;16.50;99.90;;;;;;4953729;28;20498;-75
2022/06/07 02:21:14;;;;;;;4.90;3.73;;;16.50;99.90;;;;;;4951063;28;20899;-75
2022/06/07 02:23:41;;;;;;;6.10;3.37;;;16.50;99.90;;;;;;4953742;28;20427;-75
2022/06/07 02:26:30;;;;;;;3.67;3.37;;;16.50;99.90;;;;;;4956814;28;20459;-75
2022/06/07 02:29:11;;;;;;;5.43;3.30;;;16.50;99.90;;;;;;4971265;28;20431;-74
2022/06/07 02:31:41;;;;;;;3.77;3.37;;;16.50;99.90;;;;;;4971490;28;20415;-75
2022/06/07 02:34:08;;;;;;;4.73;3.53;;;16.50;99.90;;;;;;4971016;28;20548;-75
2022/06/07 02:36:36;;;;;;;5.13;3.20;;;16.60;99.90;;;;;;4972316;28;20454;-75
2022/06/07 02:39:03;;;;;;;6.43;3.10;;;16.60;99.90;;;;;;4972734;28;20423;-75
2022/06/07 02:41:31;;;;;;;4.30;3.13;;;16.60;99.90;;;;;;4972546;28;20407;-75
2022/06/07 02:43:57;;;;;;;5.97;3.47;;;16.70;99.90;;;;;;4972635;28;20479;-75
2022/06/07 02:46:23;;;;;;;5.60;3.30;;;16.70;99.90;;;;;;4965328;28;20470;-75
2022/06/07 02:48:48;;;;;;;5.23;3.50;;;16.60;99.90;;;;;;4972290;28;20182;-74
2022/06/07 02:51:14;;;;;;;5.70;3.50;;;16.60;99.90;;;;;;4970373;28;20183;-75
2022/06/07 02:53:39;;;;;;;3.93;3.53;;;16.70;99.90;;;;;;4972346;28;20753;-76
2022/06/07 02:56:05;;;;;;;4.40;3.37;;;16.60;99.90;;;;;;4972752;28;20206;-76
2022/06/07 02:58:31;;;;;;;3.33;3.03;;;16.60;99.90;;;;;;4972499;28;20565;-75
2022/06/07 03:01:00;;;;;;;4.90;3.50;;;16.60;99.90;;;;;;4970850;28;20179;-74
2022/06/07 03:03:27;;;;;;;5.77;3.40;;;16.60;99.90;;;;;;4971706;28;20514;-75
2022/06/07 03:05:53;;;;;;;4.90;3.20;;;16.60;99.90;;;;;;4970705;28;20494;-76
2022/06/07 03:08:19;;;;;;;3.80;3.20;;;16.60;99.90;;;;;;4978250;28;20421;-74
2022/06/07 03:10:46;;;;;;;7.60;3.30;;;16.60;99.90;;;;;;4991943;28;20731;-75
2022/06/07 03:13:13;;;;;;;4.50;3.37;;;16.60;99.90;;;;;;4990987;28;20607;-75
2022/06/07 03:15:39;;;;;;;3.43;3.13;;;16.60;99.90;;;;;;4962642;28;20946;-76
2022/06/07 03:18:06;;;;;;;3.83;3.53;;;16.50;99.90;;;;;;4971616;28;20613;-75
2022/06/07 03:20:32;;;;;;;5.90;3.93;;;16.50;99.90;;;;;;4970876;28;20909;-75
2022/06/07 03:22:58;;;;;;;6.03;3.73;;;16.50;99.90;;;;;;4971109;28;20444;-75
2022/06/07 03:25:24;;;;;;;3.23;2.90;;;16.50;99.90;;;;;;4972208;28;20431;-75
2022/06/07 03:27:50;;;;;;;3.50;3.20;;;16.40;99.90;;;;;;4988027;28;20579;-74
2022/06/07 03:30:16;;;;;;;3.70;3.17;;;16.50;99.90;;;;;;4991879;28;20433;-75
2022/06/07 03:32:42;;;;;;;3.53;3.23;;;16.50;99.90;;;;;;4988764;28;20417;-75
2022/06/07 03:35:09;;;;;;;7.43;3.70;;;16.50;99.90;;;;;;4991257;28;20720;-76
2022/06/07 03:37:34;;;;;;;4.53;3.30;;;16.60;99.90;;;;;;4968063;28;20216;-76
2022/06/07 03:40:00;;;;;;;3.60;3.20;;;16.60;99.90;;;;;;4981836;28;20817;-75
2022/06/07 03:42:25;;;;;;;3.50;3.20;;;16.70;99.90;;;;;;4990957;28;20560;-75
2022/06/07 03:44:51;;;;;;;5.20;4.37;;;16.70;99.90;;;;;;4976026;28;20583;-75
2022/06/07 03:47:18;;;;;;;6.30;3.90;;;16.70;99.90;;;;;;4954281;28;20534;-75
2022/06/07 03:49:44;;;;;;;5.27;3.30;;;16.70;99.90;;;;;;4952080;28;20179;-76
2022/06/07 03:52:10;;;;;;;4.60;2.83;;;16.70;99.90;;;;;;4951562;29;20413;-75
2022/06/07 03:54:35;;;;;;;4.03;3.20;;;16.70;99.90;;;;;;4969413;28;20846;-75
2022/06/07 03:57:03;;;;;;;4.50;3.20;;;16.80;99.90;;;;;;4971678;28;20200;-75
2022/06/07 03:59:28;;;;;;;5.23;3.10;;;16.80;99.90;;;;;;4971886;28;20725;-74
2022/06/07 04:01:55;;;;;;;6.73;3.40;;;16.80;99.90;;;;;;4970876;28;20449;-76
2022/06/07 04:04:20;;;;;;;3.50;3.17;;;16.80;99.90;;;;;;4970002;28;20526;-75
2022/06/07 04:09:39;;;;;;;3.70;3.40;;;16.90;99.90;;;;;;4970919;28;20281;-74
2022/06/07 04:12:15;;;;;;;9.27;3.27;;;16.90;99.90;;;;;;4969808;28;20510;-76
2022/06/07 04:14:43;;;;;;;4.30;3.00;;;16.80;99.90;;;;;;4970544;28;20868;-75
2022/06/07 04:17:10;;;;;;;4.93;3.40;;;16.80;99.90;;;;;;4970245;28;20746;-75
2022/06/07 04:19:37;;;;;;;5.00;3.30;;;16.70;99.90;;;;;;4969716;28;20435;-75
2022/06/07 04:22:04;;;;;;;4.40;2.90;;;16.60;99.90;;;;;;4969398;28;20743;-76
2022/06/07 04:24:30;;;;;;;6.10;3.30;;;16.50;99.90;;;;;;4969694;28;20937;-76
2022/06/07 04:26:56;;;;;;;4.33;3.57;;;16.50;99.90;;;;;;4968264;28;21009;-76
2022/06/07 04:29:22;;;;;;;3.60;3.10;;;16.40;99.90;;;;;;4969931;28;20415;-76
2022/06/07 04:31:48;;;;;;;4.07;3.20;;;16.40;99.90;;;;;;4969517;28;20404;-75
2022/06/07 04:34:13;;;;;;;3.57;2.90;;;16.10;99.90;;;;;;4969111;28;20407;-75
2022/06/07 04:36:39;;;;;;;4.43;3.20;;;16.40;99.90;;;;;;4970108;28;20242;-76
2022/06/07 04:39:06;;;;;;;5.13;3.23;;;16.40;99.90;;;;;;4969751;28;20247;-75
2022/06/07 04:41:33;;;;;;;3.40;3.10;;;16.40;99.90;;;;;;4969643;28;20246;-75
2022/06/07 04:43:59;;;;;;;4.07;3.50;;;16.30;99.90;;;;;;4969780;28;20423;-75
2022/06/07 04:46:26;;;;;;;5.40;3.30;;;16.30;99.90;;;;;;4962018;28;20469;-76
2022/06/07 04:48:53;;;;;;;4.70;3.50;;;16.30;99.90;;;;;;4969136;28;20172;-75
2022/06/07 04:51:27;;;;;;;3.37;3.07;;;16.40;99.90;;;;;;4969048;28;20470;-76
2022/06/07 04:53:53;;;;;;;7.07;3.50;;;16.40;99.90;;;;;;4967758;28;20423;-75
2022/06/07 04:56:25;;;;;;;5.40;3.43;;;16.40;99.90;;;;;;4969809;28;20972;-75
2022/06/07 04:58:51;;;;;;;5.07;3.50;;;16.40;99.90;;;;;;4969997;28;20423;-75
2022/06/07 05:01:23;;;;;;;4.53;3.13;;;16.40;99.90;;;;;;4967700;28;20489;-75
2022/06/07 05:03:50;;;;;;;3.27;2.97;;;16.50;99.90;;;;;;4934056;28;1021505;-76
2022/06/07 05:06:28;;;;;;;5.10;3.53;;;16.50;99.90;;;;;;4969551;28;20238;-75
2022/06/07 05:08:57;;;;;;;4.53;3.80;;;16.60;99.90;;;;;;4968279;28;20445;-76
2022/06/07 05:11:23;;;;;;;5.07;3.57;;;16.60;99.90;;;;;;4969943;28;20423;-75
2022/06/07 05:13:53;;;;;;;5.40;3.30;;;16.60;99.90;;;;;;4970033;28;20426;-75
2022/06/07 05:16:18;;;;;;;3.30;2.90;;;16.60;99.90;;;;;;4961835;28;20572;-76
2022/06/07 05:18:51;;;;;;;3.53;3.23;;;16.70;99.90;;;;;;4967357;28;20923;-75
2022/06/07 05:21:17;;;;;;;5.90;3.07;;;16.80;99.90;;;;;;4967830;28;20254;-75
2022/06/07 05:23:43;;;;;;;3.73;3.00;;;16.90;99.90;;;;;;4969510;28;20494;-75
2022/06/07 05:26:15;;;;;;;5.20;3.20;;;16.90;99.90;;;;;;4970088;28;21117;-76
2022/06/07 05:28:42;;;;;;;3.63;3.33;;;17.00;99.90;;;;;;4972547;28;20418;-75
2022/06/07 05:31:08;;;;;;;4.07;3.43;;;17.10;99.90;;;;;;4968284;28;20423;-74
2022/06/07 05:33:34;;;;;;;3.33;3.03;;;17.10;99.90;;;;;;4969244;28;20965;-75
2022/06/07 05:35:59;;;;;;;7.20;3.53;;;17.30;99.90;;;;;;4967034;28;20534;-76
2022/06/07 05:38:25;;;;;;;3.70;3.40;;;17.30;99.90;;;;;;4969858;28;20429;-75
2022/06/07 05:40:52;;;;;;;3.57;3.27;;;17.40;99.90;;;;;;4968440;28;20234;-76
2022/06/07 05:43:18;;;;;;;4.77;3.37;;;17.40;99.90;;;;;;4969717;28;20263;-76
2022/06/07 05:45:47;;;;;;;3.40;3.03;;;17.70;99.90;;;;;;4961198;28;20502;-75
2022/06/07 05:48:14;;;;;;;9.13;3.30;;;17.50;99.90;;;;;;4950043;28;20499;-75
2022/06/07 05:50:39;;;;;;;3.57;3.27;;;17.60;99.90;;;;;;4949053;28;20416;-75
2022/06/07 05:53:05;;;;;;;3.77;3.10;;;17.60;99.90;;;;;;4949309;28;21510;-74
2022/06/07 05:55:30;;;;;;;4.50;3.40;;;17.70;99.90;;;;;;4965799;28;20196;-75
2022/06/07 05:57:56;;;;;;;3.40;3.10;;;17.80;99.90;;;;;;4967441;28;20183;-76
2022/06/07 06:00:22;;;;;;;5.87;3.60;;;17.90;99.90;;;;;;4969845;28;20554;-76
2022/06/07 06:02:48;;;;;;;3.63;3.20;;;17.90;99.90;;;;;;4967716;28;20364;-75
2022/06/07 06:05:13;;;;;;;4.40;2.87;;;18.10;99.90;;;;;;4969518;28;20202;-75
2022/06/07 06:10:19;;;;;;;3.47;2.80;;;18.10;99.90;;;;;;4968750;28;20199;-75
2022/06/07 06:10:25;;;;;;;3.40;3.10;;;18.20;99.90;;;;;;4969766;28;20546;-75
2022/06/07 06:12:50;;;;;;;5.70;2.80;;;18.30;99.90;;;;;;4969044;28;20419;-75
2022/06/07 06:15:16;;;;;;;6.47;2.77;;;18.50;96.80;;;;;;4964309;28;20524;-75
2022/06/07 06:17:42;;;;;;;4.00;2.97;;;18.50;99.30;;;;;;4966122;28;20315;-75
2022/06/07 06:20:11;;;;;;;3.23;2.87;;;18.50;93.60;;;;;;4968786;28;20242;-75
2022/06/07 06:22:37;;;;;;;3.63;2.90;;;18.50;91.20;;;;;;4968040;28;20176;-76
2022/06/07 06:25:04;;;;;;;4.20;2.60;;;18.50;88.60;;;;;;4969346;28;20416;-75
2022/06/07 06:27:32;;;;;;;4.83;2.53;;;18.60;89.30;;;;;;4967548;28;20475;-75
2022/06/07 06:29:57;;;;;;;8.43;2.70;;;18.70;87.70;;;;;;4969717;28;20756;-76
2022/06/07 06:32:23;;;;;;;2.90;2.30;;;18.80;81.00;;;;;;4968416;28;20437;-75
2022/06/07 06:34:48;;;;;;;4.43;2.90;;;18.80;81.00;;;;;;4968612;28;20574;-74
2022/06/07 06:37:14;;;;;;;5.20;2.83;;;18.90;80.30;;;;;;4968531;28;20246;-75
2022/06/07 06:39:40;;;;;;;3.33;2.90;;;19.00;82.40;;;;;;4969379;28;20180;-75
2022/06/07 06:42:06;;;;;;;3.70;2.83;;;19.10;68.80;;;;;;4968702;28;20234;-75
2022/06/07 06:44:32;;;;;;;8.00;2.80;;;19.30;69.90;;;;;;4969201;28;20419;-76
2022/06/07 06:46:58;;;;;;;5.50;2.60;;;19.40;62.20;;;;;;4963125;28;20242;-75
2022/06/07 06:49:24;;;;;;;3.80;3.10;;;19.50;55.70;;;;;;4969865;28;20267;-74
2022/06/07 06:51:50;;;;;;;3.33;2.87;;;19.60;57.30;;;;;;4970466;28;20186;-75
2022/06/07 06:54:17;;;;;;;5.50;2.70;;;19.70;54.00;;;;;;4971961;28;20494;-75
2022/06/07 06:56:43;;;;;;;5.50;2.80;;;19.60;55.90;;;;;;4972299;28;20663;-75
2022/06/07 06:59:09;;;;;;;3.43;2.47;;;19.60;55.80;;;;;;4972293;28;20955;-76
2022/06/07 07:01:38;;;;;;;6.00;2.80;;;19.50;56.00;;;;;;4971959;28;20411;-75
2022/06/07 07:04:07;;;;;;;5.63;2.87;;;19.50;52.40;;;;;;4971412;28;20922;-76
2022/06/07 07:06:33;;;;;;;4.60;2.90;;;19.70;53.40;;;;;;4971891;28;20455;-76
2022/06/07 07:08:59;;;;;;;6.37;2.93;;;19.80;54.40;;;;;;4970288;28;20431;-75
2022/06/07 07:11:37;;;;;;;4.87;3.13;;;20.10;51.80;;;;;;4971733;28;20180;-76
2022/06/07 07:14:05;;;;;;;5.93;2.80;;;20.50;46.80;;;;;;4972079;28;20427;-76
2022/06/07 07:16:33;;;;;;;4.93;2.63;;;20.70;47.00;;;;;;4962984;28;20770;-76
2022/06/07 07:19:02;;;;;;;5.40;3.20;;;20.70;47.00;;;;;;4970922;28;20822;-76
2022/06/07 07:21:33;;;;;;;5.53;2.70;;;20.60;46.90;;;;;;4971953;28;20493;-73
2022/06/07 07:24:00;;;;;;;4.53;2.73;;;20.50;46.80;;;;;;4970270;28;20470;-73
2022/06/07 07:26:27;;;;;;;5.20;2.40;;;20.30;46.60;;;;;;4971816;28;20887;-74
2022/06/07 07:28:53;;;;;;;3.53;2.60;;;20.20;46.50;;;;;;4971182;28;20434;-74
2022/06/07 07:31:22;;;;;;;3.23;2.67;;;20.70;47.00;;;;;;4970876;28;20754;-75
2022/06/07 07:33:48;;;;;;;4.37;2.57;;;20.60;47.00;;;;;;4969788;28;20558;-75
2022/06/07 07:36:14;;;;;;;4.03;2.80;;;20.70;46.90;;;;;;4970950;28;20443;-75
2022/06/07 07:38:41;;;;;;;4.33;2.70;;;20.80;39.90;;;;;;4969865;28;20450;-75
2022/06/07 07:41:30;;;;;;;3.93;3.20;;;21.20;42.60;;;;;;4971324;28;20175;-74
2022/06/07 07:43:59;;;;;;;4.67;3.00;;;21.50;31.20;;;;;;4970073;28;20427;-75
2022/06/07 07:46:29;;;;;;;4.40;3.00;;;21.70;29.30;;;;;;4963300;28;20479;-75
2022/06/07 07:48:55;;;;;;;5.40;3.07;;;22.00;32.00;;;;;;4970887;28;20430;-75
2022/06/07 07:51:30;;;;;;;4.53;2.80;;;22.00;31.80;;;;;;4970651;28;20894;-74
2022/06/07 07:53:57;;;;;;;6.20;3.43;;;21.80;30.60;;;;;;4970651;28;20637;-75
2022/06/07 07:56:23;;;;;;;5.40;2.53;;;22.20;29.80;;;;;;4971298;28;20465;-75
2022/06/07 07:58:50;;;;;;;3.97;2.90;;;23.00;23.40;;;;;;4969145;28;20925;-76
2022/06/07 08:01:19;;;;;;;3.77;2.70;;;22.60;24.00;;;;;;4970770;28;20274;-75
2022/06/07 08:03:44;;;;;;;4.87;2.60;;;22.80;18.40;;;;;;4970496;28;20453;-76
2022/06/07 08:06:17;;;;;;;4.40;2.70;;;22.60;15.90;;;;;;4969688;28;20561;-76
2022/06/07 08:08:43;;;;;;;3.20;2.60;;;22.40;14.80;;;;;;4968976;28;20176;-75
2022/06/07 08:11:09;;;;;;;3.20;2.40;;;22.50;16.90;;;;;;4970743;28;20874;-75
2022/06/07 08:13:36;;;;;;;4.53;2.70;;;22.60;15.80;;;;;;4971057;28;20429;-76
2022/06/07 08:16:04;;;;;;;3.80;2.50;;;23.20;11.40;;;;;;4963011;28;20581;-75
2022/06/07 08:18:30;;;;;;;5.23;2.53;;;23.20;11.50;;;;;;4969079;28;20785;-76
2022/06/07 08:21:01;;;;;;;9.40;2.57;;;23.40;11.80;;;;;;4970318;28;20426;-74
2022/06/07 08:23:28;;;;;;;7.47;2.23;;;23.80;2.30;;;;;;4969007;28;20254;-76
2022/06/07 08:25:58;;;;;;;3.20;2.27;;;23.90;1.00;;;;;;4969572;28;20469;-76
2022/06/07 08:28:24;;;;;;;5.97;2.00;;;23.80;1.00;;;;;;4971135;28;20453;-76
2022/06/07 08:30:50;;;;;;;2.80;2.10;;;24.00;1.00;;;;;;4971232;28;20439;-75
2022/06/07 08:38:50;;;;;;;6.37;2.30;;;23.90;1.00;;;;;;4970215;28;20909;-74
2022/06/07 08:41:27;;;;;;;4.70;2.20;;;24.20;1.00;;;;;;4970368;28;20422;-76
2022/06/07 08:44:03;;;;;;;3.53;2.10;;;24.40;1.00;;;;;;4970583;28;20262;-74
2022/06/07 08:46:33;;;;;;;3.87;2.07;;;24.90;1.00;;;;;;4962372;28;20497;-76
2022/06/07 08:48:59;;;;;;;5.80;2.60;;;24.80;1.00;;;;;;4969988;28;20413;-76
2022/06/07 08:51:36;;;;;;;4.43;2.50;;;24.00;1.00;;;;;;4969881;28;20411;-74
2022/06/07 08:54:13;;;;;;;4.33;2.33;;;23.60;1.00;;;;;;4964585;28;20426;-76
2022/06/07 08:56:39;;;;;;;8.10;2.30;;;24.10;1.00;;;;;;4970555;28;20493;-76
2022/06/07 08:59:17;;;;;;;3.27;2.50;;;24.80;1.00;;;;;;4970234;28;20909;-76
2022/06/07 09:01:49;;;;;;;6.27;2.07;;;25.30;1.00;;;;;;4970026;28;20175;-76
2022/06/07 09:04:24;;;;;;;4.90;2.43;;;25.40;1.00;;;;;;4967871;28;20560;-76
2022/06/07 09:06:53;;;;;;;3.80;2.43;;;25.60;1.00;;;;;;4970534;28;20746;-76
2022/06/07 09:09:22;;;;;;;5.13;2.07;;;26.70;1.00;;;;;;4969761;28;20477;-76
2022/06/07 09:12:14;;;;;;;4.73;2.20;;;26.80;1.00;;;;;;4970115;28;20419;-76
2022/06/07 09:14:45;;;;;;;3.53;1.83;;;26.70;1.00;;;;;;4969654;28;20414;-76
2022/06/07 09:17:15;;;;;;;2.60;2.00;;;25.80;1.00;;;;;;4963225;28;20501;-76
2022/06/07 09:19:43;;;;;;;5.17;1.80;;;25.30;1.00;;;;;;4968075;28;21215;-76
2022/06/07 09:22:25;;;;;;;4.20;2.00;;;25.80;1.00;;;;;;4971374;28;20913;-76
2022/06/07 09:24:57;;;;;;;4.57;2.10;;;27.80;1.00;;;;;;4970291;28;20410;-76
2022/06/07 09:27:26;;;;;;;2.73;1.83;;;29.30;1.00;;;;;;4969876;28;20470;-76
2022/06/07 09:29:59;;;;;;;3.37;2.30;;;28.80;1.00;;;;;;4969861;28;20175;-76
2022/06/07 09:32:31;;;;;;;3.90;2.00;;;27.90;1.00;;;;;;4967598;28;20206;-76
2022/06/07 09:35:08;;;;;;;5.93;2.10;;;27.80;1.00;;;;;;4969436;28;20207;-77
2022/06/07 09:37:47;;;;;;;3.50;1.87;;;29.30;1.00;;;;;;4969879;28;20752;-76
2022/06/07 09:40:27;;;;;;;3.40;2.00;;;27.90;1.00;;;;;;4970235;28;20171;-77
2022/06/07 09:43:08;;;;;;;3.37;1.90;;;26.70;1.00;;;;;;4969044;28;20250;-75
2022/06/07 09:45:46;;;;;;;5.43;2.37;;;25.80;1.00;;;;;;4962971;28;21026;-76
2022/06/07 09:48:27;;;;;;;2.80;2.00;;;25.80;1.00;;;;;;4977103;28;20466;-76
2022/06/07 09:50:58;;;;;;;2.70;2.20;;;27.20;1.00;;;;;;4969240;28;20398;-77
2022/06/07 09:53:24;;;;;;;4.03;2.20;;;29.10;1.00;;;;;;4969243;28;20411;-77
2022/06/07 09:56:30;;;;;;;3.23;1.90;;;30.30;1.00;;;;;;4970188;28;20303;-77
2022/06/07 09:59:08;;;;;;;6.05;1.95;;;31.30;1.00;;;;;;4946734;28;20379;-78
2022/06/07 10:01:47;;;;;;;5.55;2.42;;;32.30;1.00;;;;;;4969103;28;20172;-77
2022/06/07 10:04:31;;;;;;;2.80;2.00;;;30.60;1.00;;;;;;4968205;28;20248;-76
2022/06/07 10:07:07;;;;;;;3.30;1.90;;;28.00;1.00;;;;;;4968134;28;20211;-77
2022/06/07 10:10:21;;;;;;;5.47;2.13;;;28.50;1.00;;;;;;4969847;28;20241;-76
2022/06/07 10:13:16;;;;;;;2.85;1.90;;;30.40;1.00;;;;;;4969260;28;20234;-77
2022/06/07 10:15:50;;;;;;;3.22;1.90;;;32.30;1.00;;;;;;4962406;28;20536;-77
2022/06/07 10:18:36;;;;;;;3.20;1.83;;;33.10;1.00;;;;;;4987897;28;20225;-75
2022/06/07 10:21:24;;;;;;;4.43;1.70;;;32.80;1.00;;;;;;4988738;28;20181;-75
2022/06/07 10:24:00;;;;;;;4.63;1.95;;;32.20;1.00;;;;;;4992707;28;20171;-76
2022/06/07 10:26:38;;;;;;;2.75;2.00;;;31.70;1.00;;;;;;4992865;28;20324;-77
2022/06/07 10:29:34;;;;;;;3.42;1.80;;;30.80;1.00;;;;;;4992737;28;20497;-77
2022/06/07 10:32:08;;;;;;;6.00;1.80;;;29.80;1.00;;;;;;4992147;28;20606;-77
2022/06/07 10:34:59;;;;;;;3.70;1.80;;;29.10;1.00;;;;;;4991950;28;20170;-77
2022/06/07 10:37:59;;;;;;;3.13;1.90;;;28.10;1.00;;;;;;4990626;28;20333;-77
2022/06/07 10:40:25;;;;;;;3.33;1.87;;;27.50;1.00;;;;;;4992499;28;20175;-76
2022/06/07 10:43:03;;;;;;;3.23;1.70;;;27.70;1.00;;;;;;4990196;28;20181;-77
2022/06/07 10:45:33;;;;;;;7.10;2.33;;;27.30;1.00;;;;;;4988649;28;20317;-76
2022/06/07 10:48:09;;;;;;;4.10;2.00;;;27.50;1.00;;;;;;4952780;28;21001;-76
2022/06/07 10:50:43;;;;;;;3.83;1.70;;;29.90;1.00;;;;;;4953505;29;20168;-77
2022/06/07 10:53:30;;;;;;;2.90;1.60;;;31.70;1.00;;;;;;4952112;28;20176;-77
2022/06/07 10:56:23;;;;;;;3.08;1.80;;;32.50;1.00;;;;;;4972172;28;20289;-77
2022/06/07 10:58:53;;;;;;;7.68;1.98;;;32.90;1.00;;;;;;4973096;28;20171;-77
2022/06/07 11:01:35;;;;;;;4.15;1.70;;;31.90;1.00;;;;;;4972376;28;20776;-77
2022/06/07 11:04:10;;;;;;;4.47;1.95;;;31.30;1.00;;;;;;4971710;28;20693;-77
2022/06/07 11:09:41;;;;;;;4.00;1.90;;;28.70;1.00;;;;;;4972238;28;20265;-76
2022/06/07 11:12:29;;;;;;;2.60;1.50;;;29.60;1.00;;;;;;4971919;28;20160;-77
2022/06/07 11:15:04;;;;;;;2.38;1.70;;;30.60;1.00;;;;;;4969645;28;20176;-76
2022/06/07 11:17:38;;;;;;;3.03;1.80;;;30.70;1.00;;;;;;4967889;28;20175;-76
2022/06/07 11:20:48;;;;;;;2.80;1.70;;;32.40;1.00;;;;;;4971853;28;20713;-77
2022/06/07 11:23:17;;;;;;;4.05;1.83;;;34.90;1.00;;;;;;4922222;29;20562;-78
2022/06/07 11:26:02;;;;;;;2.83;1.58;;;36.40;1.00;;;;;;4961278;28;20328;-77
2022/06/07 11:28:34;;;;;;;4.25;1.50;;;36.30;1.00;;;;;;4968116;28;20214;-77
2022/06/07 11:31:02;;;;;;;6.63;2.03;;;36.40;1.00;;;;;;4971715;28;20194;-77
2022/06/07 11:33:36;;;;;;;2.78;1.58;;;35.30;1.00;;;;;;4971281;28;20163;-77
2022/06/07 11:36:19;;;;;;;4.55;1.70;;;34.60;1.00;;;;;;4971793;28;20668;-77
2022/06/07 11:39:24;;;;;;;2.53;1.55;;;35.10;1.00;;;;;;4971591;28;20274;-77
2022/06/07 11:41:56;;;;;;;3.72;1.75;;;34.50;1.00;;;;;;4955213;28;20223;-78
2022/06/07 11:44:43;;;;;;;3.40;1.92;;;32.20;1.00;;;;;;4970268;28;20742;-77
2022/06/07 11:47:13;;;;;;;3.38;1.80;;;32.50;1.00;;;;;;4964453;28;20207;-77
2022/06/07 11:49:39;;;;;;;2.25;1.65;;;34.30;1.00;;;;;;4971298;28;20691;-77
2022/06/07 11:52:13;;;;;;;6.18;1.80;;;35.10;1.00;;;;;;4970762;28;20247;-77
2022/06/07 11:54:45;;;;;;;2.55;1.63;;;35.90;1.00;;;;;;4971830;28;20175;-77
2022/06/07 11:57:32;;;;;;;5.03;1.60;;;36.30;1.00;;;;;;4971628;28;20269;-77
2022/06/07 12:00:16;;;;;;;4.70;1.52;;;36.10;1.00;;;;;;4971733;28;20250;-77
2022/06/07 12:03:03;;;;;;;3.13;1.60;;;34.50;1.00;;;;;;4970172;28;20175;-77
2022/06/07 12:05:54;;;;;;;3.25;1.38;;;34.70;1.00;;;;;;4970730;28;20334;-77
2022/06/07 12:08:19;;;;;;;5.43;1.50;;;34.20;1.00;;;;;;4970175;28;20189;-77
2022/06/07 12:11:20;;;;;;;2.38;1.40;;;33.10;1.00;;;;;;4971420;28;20172;-75
2022/06/07 12:14:00;;;;;;;3.72;1.58;;;32.10;1.00;;;;;;4971234;28;20534;-77
2022/06/07 12:16:36;;;;;;;5.82;1.40;;;31.10;1.00;;;;;;4963275;28;20621;-77
2022/06/07 12:19:05;;;;;;;3.38;1.70;;;30.50;1.00;;;;;;4970272;28;20266;-76
2022/06/07 12:21:42;;;;;;;3.97;1.60;;;30.90;1.00;;;;;;4970290;28;20605;-77
2022/06/07 12:24:15;;;;;;;3.75;1.70;;;32.40;1.00;;;;;;4970609;28;20257;-76
2022/06/07 12:26:45;;;;;;;2.95;1.67;;;32.10;1.00;;;;;;4971083;28;20196;-77
2022/06/07 12:29:21;;;;;;;5.85;1.83;;;30.90;1.00;;;;;;4969919;28;20167;-77
2022/06/07 12:31:52;;;;;;;3.00;1.80;;;29.90;1.00;;;;;;4970377;28;20171;-76
2022/06/07 12:34:24;;;;;;;3.20;1.83;;;29.70;1.00;;;;;;4970009;28;20178;-76
2022/06/07 12:36:57;;;;;;;3.70;1.70;;;29.60;1.00;;;;;;4971200;28;20199;-77
2022/06/07 12:39:24;;;;;;;5.40;1.90;;;29.40;1.00;;;;;;4970139;28;20261;-77
2022/06/07 12:41:56;;;;;;;2.50;1.57;;;29.10;1.00;;;;;;4968930;28;20219;-77
2022/06/07 12:44:32;;;;;;;3.53;1.50;;;29.60;1.00;;;;;;4970041;28;20190;-77
2022/06/07 12:46:59;;;;;;;4.05;1.50;;;30.80;1.00;;;;;;4962793;28;20628;-76
2022/06/07 12:49:41;;;;;;;2.80;1.40;;;31.80;1.00;;;;;;4969652;28;20182;-77
2022/06/07 12:52:13;;;;;;;3.33;1.70;;;31.70;1.00;;;;;;4969713;28;20222;-77
2022/06/07 12:54:45;;;;;;;2.65;1.48;;;30.00;1.00;;;;;;4965502;28;20187;-77
2022/06/07 12:57:19;;;;;;;3.92;1.77;;;30.90;1.00;;;;;;4990252;28;20547;-77
2022/06/07 13:00:03;;;;;;;3.63;1.60;;;32.90;1.00;;;;;;4988702;28;20185;-77
2022/06/07 13:02:34;;;;;;;2.47;1.50;;;34.60;1.00;;;;;;4988934;28;20174;-77
2022/06/07 13:05:08;;;;;;;3.13;1.48;;;35.70;1.00;;;;;;4989009;28;20186;-76
2022/06/07 13:07:47;;;;;;;2.67;1.40;;;35.40;1.00;;;;;;4988039;28;20609;-77
2022/06/07 13:10:17;;;;;;;2.70;1.30;;;36.20;1.00;;;;;;4990195;28;20265;-76
2022/06/07 13:12:46;;;;;;;5.18;1.30;;;36.20;1.00;;;;;;4987563;28;20817;-77
2022/06/07 13:15:25;;;;;;;2.45;1.30;;;36.20;1.00;;;;;;4979863;28;20653;-77
2022/06/07 13:18:22;;;;;;;2.65;1.25;;;36.90;1.00;;;;;;4982278;28;20176;-77
2022/06/07 13:20:50;;;;;;;3.33;1.30;;;37.30;1.00;;;;;;4949447;29;20233;-77
2022/06/07 13:23:18;;;;;;;3.70;1.50;;;36.80;1.00;;;;;;4949912;28;20373;-77
2022/06/07 13:25:46;;;;;;;2.70;1.40;;;36.70;1.00;;;;;;4949541;28;20266;-77
2022/06/07 13:28:21;;;;;;;2.30;1.20;;;37.10;1.00;;;;;;4963382;28;20290;-78